createdAt,value
2022-10-08T00:01:36.988Z,31.35
2022-10-08T00:04:05.407Z,29.65
2022-10-08T00:06:35.148Z,26.00
2022-10-08T00:09:06.940Z,22.40
2022-10-08T00:11:39.274Z,21.73
2022-10-08T00:14:09.446Z,22.83
2022-10-08T00:16:41.199Z,23.27
2022-10-08T00:19:15.291Z,22.88
2022-10-08T00:21:45.872Z,26.02
2022-10-08T00:24:17.315Z,29.05
2022-10-08T00:26:46.777Z,29.80
2022-10-08T00:29:17.762Z,34.35
2022-10-08T00:31:48.641Z,30.10
2022-10-08T00:34:23.618Z,36.33
2022-10-08T00:36:56.138Z,31.48
2022-10-08T00:39:25.477Z,36.17
2022-10-08T00:41:56.538Z,42.15
2022-10-08T00:44:52.697Z,35.35
2022-10-08T00:47:33.555Z,29.75
2022-10-08T00:50:19.729Z,29.00
2022-10-08T00:52:57.139Z,25.02
2022-10-08T00:55:29.834Z,23.70
2022-10-08T00:58:02.429Z,23.33
2022-10-08T01:00:31.680Z,22.92
2022-10-08T01:03:03.541Z,22.85
2022-10-08T01:05:56.831Z,21.85
2022-10-08T01:08:32.422Z,21.25
2022-10-08T01:11:13.786Z,22.50
2022-10-08T01:13:54.219Z,23.38
2022-10-08T01:16:35.556Z,22.80
2022-10-08T01:19:20.265Z,23.48
2022-10-08T01:22:06.830Z,22.25
2022-10-08T01:25:15.674Z,22.23
2022-10-08T01:27:48.136Z,25.30
2022-10-08T01:30:19.283Z,25.10
2022-10-08T01:33:02.806Z,27.17
2022-10-08T01:35:33.804Z,24.35
2022-10-08T01:38:07.217Z,23.25
2022-10-08T01:40:38.935Z,22.73
2022-10-08T01:43:11.303Z,24.38
2022-10-08T01:45:45.123Z,26.85
2022-10-08T01:48:19.193Z,26.42
2022-10-08T01:51:03.804Z,24.70
2022-10-08T01:53:37.745Z,20.98
2022-10-08T01:56:11.544Z,19.92
2022-10-08T01:59:03.447Z,20.13
2022-10-08T02:01:50.051Z,19.25
2022-10-08T02:04:34.924Z,20.75
2022-10-08T02:07:11.125Z,19.35
2022-10-08T02:09:43.319Z,19.45
2022-10-08T02:12:12.298Z,19.67
2022-10-08T02:15:02.125Z,18.42
2022-10-08T02:17:55.384Z,18.67
2022-10-08T02:20:32.633Z,21.85
2022-10-08T02:23:25.970Z,25.38
2022-10-08T02:26:08.153Z,26.70
2022-10-08T02:28:39.694Z,24.88
2022-10-08T02:31:26.485Z,26.27
2022-10-08T02:34:02.625Z,26.58
2022-10-08T02:36:36.839Z,25.83
2022-10-08T02:39:06.905Z,24.98
2022-10-08T02:41:41.277Z,27.42
2022-10-08T02:44:17.350Z,29.83
2022-10-08T02:46:50.322Z,48.03
2022-10-08T02:49:26.632Z,36.97
2022-10-08T02:51:58.595Z,34.45
2022-10-08T02:54:28.517Z,32.35
2022-10-08T02:57:10.257Z,29.88
2022-10-08T02:59:39.482Z,31.38
2022-10-08T03:02:12.185Z,31.15
2022-10-08T03:04:48.539Z,28.48
2022-10-08T03:07:17.863Z,27.95
2022-10-08T03:09:51.968Z,23.90
2022-10-08T03:12:20.442Z,19.25
2022-10-08T03:14:50.099Z,20.73
2022-10-08T03:17:28.077Z,20.63
2022-10-08T03:19:57.437Z,23.05
2022-10-08T03:22:25.953Z,22.17
2022-10-08T03:24:56.798Z,22.67
2022-10-08T03:27:25.954Z,23.00
2022-10-08T03:29:57.425Z,23.42
2022-10-08T03:32:26.787Z,22.50
2022-10-08T03:34:55.491Z,22.30
2022-10-08T03:37:24.023Z,23.58
2022-10-08T03:39:52.436Z,22.15
2022-10-08T03:42:22.191Z,22.88
2022-10-08T03:44:50.682Z,23.13
2022-10-08T03:47:19.154Z,24.40
2022-10-08T03:49:47.918Z,22.52
2022-10-08T03:52:16.354Z,20.02
2022-10-08T03:54:44.689Z,19.85
2022-10-08T03:57:13.334Z,19.27
2022-10-08T03:59:41.792Z,19.33
2022-10-08T04:02:16.556Z,20.58
2022-10-08T04:04:45.512Z,19.02
2022-10-08T04:07:13.974Z,18.13
2022-10-08T04:09:42.515Z,18.92
2022-10-08T04:12:11.220Z,19.23
2022-10-08T04:14:39.532Z,19.80
2022-10-08T04:17:08.120Z,20.60
2022-10-08T04:19:37.000Z,22.13
2022-10-08T04:22:06.699Z,21.90
2022-10-08T04:24:35.337Z,27.20
2022-10-08T04:27:04.384Z,27.42
2022-10-08T04:29:33.015Z,25.48
2022-10-08T04:32:01.493Z,24.52
2022-10-08T04:34:30.181Z,25.48
2022-10-08T04:36:58.599Z,25.48
2022-10-08T04:39:28.148Z,24.92
2022-10-08T04:41:56.923Z,31.20
2022-10-08T04:44:25.415Z,31.20
2022-10-08T04:46:53.794Z,35.60
2022-10-08T04:49:23.389Z,41.53
2022-10-08T04:51:51.989Z,45.58
2022-10-08T04:54:20.394Z,41.53
2022-10-08T04:56:49.323Z,42.92
2022-10-08T04:59:17.802Z,41.05
2022-10-08T05:01:46.274Z,37.15
2022-10-08T05:04:14.872Z,32.08
2022-10-08T05:06:43.258Z,33.63
2022-10-08T05:09:12.856Z,34.25
2022-10-08T05:11:41.464Z,33.08
2022-10-08T05:14:14.012Z,33.92
2022-10-08T05:16:42.959Z,37.05
2022-10-08T05:19:11.384Z,42.55
2022-10-08T05:21:39.728Z,42.53
2022-10-08T05:24:09.294Z,46.08
2022-10-08T05:29:30.623Z,47.20
2022-10-08T05:31:59.048Z,44.00
2022-10-08T05:34:28.118Z,34.88
2022-10-08T05:36:56.922Z,35.40
2022-10-08T05:39:25.368Z,34.75
2022-10-08T05:41:54.570Z,34.40
2022-10-08T05:44:23.332Z,36.45
2022-10-08T05:46:51.906Z,33.83
2022-10-08T05:49:22.721Z,33.70
2022-10-08T05:51:51.614Z,33.03
2022-10-08T05:54:21.081Z,34.90
2022-10-08T05:56:49.609Z,34.28
2022-10-08T05:59:24.208Z,36.67
2022-10-08T06:01:52.712Z,36.80
2022-10-08T06:04:21.636Z,37.50
2022-10-08T06:06:50.121Z,38.80
2022-10-08T06:09:20.797Z,45.08
2022-10-08T06:11:50.908Z,44.17
2022-10-08T06:14:20.683Z,42.33
2022-10-08T06:16:49.223Z,39.60
2022-10-08T06:19:18.356Z,35.88
2022-10-08T06:21:47.062Z,32.42
2022-10-08T06:24:17.185Z,32.03
2022-10-08T06:26:46.431Z,33.50
2022-10-08T06:29:17.710Z,33.70
2022-10-08T06:31:47.626Z,35.47
2022-10-08T06:34:16.714Z,37.28
2022-10-08T06:36:45.318Z,42.50
2022-10-08T06:39:16.689Z,47.20
2022-10-08T06:41:45.763Z,42.83
2022-10-08T06:44:15.918Z,37.78
2022-10-08T06:46:44.958Z,33.38
2022-10-08T06:49:17.293Z,33.45
2022-10-08T06:51:45.802Z,31.80
2022-10-08T06:54:14.503Z,32.22
2022-10-08T06:56:42.797Z,31.63
2022-10-08T06:59:11.389Z,31.00
2022-10-08T07:01:41.244Z,29.35
2022-10-08T07:04:11.826Z,29.23
2022-10-08T07:07:56.002Z,28.15
2022-10-08T07:10:53.045Z,27.98
2022-10-08T07:13:40.179Z,28.10
2022-10-08T07:16:34.358Z,26.98
2022-10-08T07:19:06.400Z,25.23
2022-10-08T07:26:38.332Z,27.23
2022-10-08T07:32:20.807Z,31.30
2022-10-08T07:34:50.945Z,29.95
2022-10-08T07:37:45.843Z,27.08
2022-10-08T07:40:15.777Z,27.30
2022-10-08T07:42:44.754Z,21.85
2022-10-08T07:45:44.005Z,17.90
2022-10-08T07:48:12.761Z,18.73
2022-10-08T07:50:41.219Z,17.75
2022-10-08T07:53:10.351Z,18.58
2022-10-08T08:00:17.343Z,18.25
2022-10-08T08:02:50.155Z,16.52
2022-10-08T08:05:24.391Z,17.38
2022-10-08T08:08:09.684Z,17.17
2022-10-08T08:10:38.528Z,16.42
2022-10-08T08:13:07.331Z,16.45
2022-10-08T08:15:42.249Z,15.77
2022-10-08T08:18:13.759Z,15.27
2022-10-08T08:20:43.133Z,15.48
2022-10-08T08:23:11.871Z,14.50
2022-10-08T08:26:06.963Z,15.75
2022-10-08T08:28:41.363Z,14.00
2022-10-08T08:35:17.779Z,12.10
2022-10-08T08:38:11.787Z,11.05
2022-10-08T08:40:40.796Z,10.60
2022-10-08T08:43:09.268Z,11.57
2022-10-08T08:46:03.033Z,11.13
2022-10-08T08:48:38.148Z,10.90
2022-10-08T08:51:06.785Z,9.85
2022-10-08T08:53:37.038Z,9.95
2022-10-08T08:56:08.390Z,10.50
2022-10-08T08:58:48.856Z,10.15
2022-10-08T09:01:29.879Z,10.10
2022-10-08T09:04:25.668Z,10.50
2022-10-08T09:06:58.694Z,9.80
2022-10-08T09:09:40.956Z,9.70
2022-10-08T09:14:54.775Z,9.55
2022-10-08T09:17:36.631Z,10.05
2022-10-08T09:22:41.873Z,10.00
2022-10-08T09:25:25.534Z,9.73
2022-10-08T09:27:56.863Z,10.10
2022-10-08T09:30:25.860Z,10.07
2022-10-08T09:32:56.985Z,9.07
2022-10-08T09:35:25.916Z,10.70
2022-10-08T09:37:58.252Z,9.45
2022-10-08T09:40:28.786Z,10.25
2022-10-08T09:43:16.822Z,9.60
2022-10-08T09:45:49.942Z,9.95
2022-10-08T09:48:29.391Z,10.00
2022-10-08T09:51:02.315Z,10.48
2022-10-08T09:53:47.782Z,9.55
2022-10-08T09:56:27.826Z,9.50
2022-10-08T09:58:58.179Z,9.60
2022-10-08T10:01:27.299Z,9.63
2022-10-08T10:03:58.512Z,9.70
2022-10-08T10:06:30.188Z,9.90
2022-10-08T10:09:11.084Z,9.18
2022-10-08T10:11:49.801Z,8.27
2022-10-08T10:14:37.377Z,8.50
2022-10-08T10:17:30.749Z,8.40
2022-10-08T10:20:06.674Z,8.40
2022-10-08T10:22:54.723Z,8.57
2022-10-08T10:25:41.787Z,9.60
2022-10-08T10:28:34.761Z,9.23
2022-10-08T10:31:10.970Z,8.48
2022-10-08T10:33:54.835Z,8.80
2022-10-08T10:36:25.556Z,9.05
2022-10-08T10:39:26.692Z,8.90
2022-10-08T10:42:15.399Z,9.03
2022-10-08T10:44:50.524Z,8.20
2022-10-08T10:47:33.566Z,8.85
2022-10-08T10:50:03.173Z,8.80
2022-10-08T10:52:47.876Z,8.50
2022-10-08T10:55:57.358Z,9.05
2022-10-08T10:59:23.557Z,8.40
2022-10-08T11:02:16.893Z,8.02
2022-10-08T11:09:12.960Z,8.73
2022-10-08T11:11:46.715Z,9.68
2022-10-08T11:14:35.249Z,8.90
2022-10-08T11:17:40.963Z,9.90
2022-10-08T11:20:38.437Z,8.80
2022-10-08T11:23:24.091Z,8.35
2022-10-08T11:26:41.241Z,8.05
2022-10-08T11:29:45.738Z,8.45
2022-10-08T11:32:16.963Z,8.95
2022-10-08T11:35:08.348Z,9.13
2022-10-08T11:37:59.304Z,9.15
2022-10-08T11:41:09.987Z,8.77
2022-10-08T11:44:04.617Z,7.65
2022-10-08T11:46:37.185Z,7.10
2022-10-08T11:49:14.849Z,5.65
2022-10-08T11:52:13.673Z,6.53
2022-10-08T11:54:42.917Z,6.40
2022-10-08T11:58:06.672Z,5.90
2022-10-08T12:00:47.447Z,5.40
2022-10-08T12:03:30.529Z,5.63
2022-10-08T12:06:13.590Z,6.07
2022-10-08T12:08:53.434Z,5.13
2022-10-08T12:11:39.974Z,6.30
2022-10-08T12:14:12.706Z,7.10
2022-10-08T12:16:47.848Z,8.63
2022-10-08T12:19:37.516Z,7.57
2022-10-08T12:22:17.811Z,7.50
2022-10-08T12:24:50.279Z,6.18
2022-10-08T12:27:28.796Z,4.40
2022-10-08T12:34:27.976Z,3.72
2022-10-08T12:37:16.606Z,4.88
2022-10-08T12:40:00.474Z,3.90
2022-10-08T12:42:36.235Z,4.10
2022-10-08T12:45:29.391Z,4.40
2022-10-08T12:52:16.111Z,4.88
2022-10-08T12:54:51.755Z,4.50
2022-10-08T12:57:37.873Z,8.77
2022-10-08T13:00:19.690Z,5.07
2022-10-08T13:03:06.276Z,4.25
2022-10-08T13:05:40.867Z,4.25
2022-10-08T13:08:26.336Z,6.93
2022-10-08T13:10:58.117Z,5.43
2022-10-08T13:13:40.120Z,4.82
2022-10-08T13:16:15.216Z,4.72
2022-10-08T13:18:57.587Z,4.68
2022-10-08T13:21:38.267Z,4.78
2022-10-08T13:24:26.161Z,5.80
2022-10-08T13:26:56.081Z,4.43
2022-10-08T13:29:26.872Z,4.25
2022-10-08T13:32:05.726Z,4.30
2022-10-08T13:34:40.506Z,5.53
2022-10-08T13:37:13.095Z,5.90
2022-10-08T13:39:50.071Z,5.47
2022-10-08T13:42:22.123Z,4.15
2022-10-08T13:44:51.828Z,4.60
2022-10-08T13:47:23.617Z,4.28
2022-10-08T13:49:52.411Z,4.55
2022-10-08T13:52:24.646Z,7.00
2022-10-08T13:54:59.374Z,5.47
2022-10-08T13:57:28.769Z,11.23
2022-10-08T13:59:57.716Z,6.13
2022-10-08T14:02:27.950Z,5.68
2022-10-08T14:04:56.950Z,5.28
2022-10-08T14:07:33.488Z,5.68
2022-10-08T14:10:02.401Z,4.40
2022-10-08T14:12:33.871Z,5.38
2022-10-08T14:15:02.601Z,6.00
2022-10-08T14:17:33.174Z,6.18
2022-10-08T14:20:05.482Z,7.63
2022-10-08T14:22:39.089Z,7.68
2022-10-08T14:25:17.533Z,7.47
2022-10-08T14:27:46.602Z,6.30
2022-10-08T14:30:17.423Z,4.70
2022-10-08T14:32:46.674Z,5.05
2022-10-08T14:35:15.603Z,4.93
2022-10-08T14:37:46.057Z,5.80
2022-10-08T14:40:21.391Z,5.45
2022-10-08T14:42:52.356Z,6.65
2022-10-08T14:45:22.335Z,3.65
2022-10-08T14:47:51.271Z,3.70
2022-10-08T14:50:20.052Z,4.00
2022-10-08T14:52:48.716Z,4.65
2022-10-08T14:55:17.638Z,4.78
2022-10-08T14:57:46.058Z,4.88
2022-10-08T15:00:14.960Z,4.68
2022-10-08T15:02:43.614Z,5.53
2022-10-08T15:05:11.960Z,4.30
2022-10-08T15:07:40.493Z,4.45
2022-10-08T15:10:09.370Z,4.65
2022-10-08T15:12:37.865Z,5.25
2022-10-08T15:15:07.138Z,6.45
2022-10-08T15:17:35.778Z,4.90
2022-10-08T15:20:04.584Z,4.80
2022-10-08T15:22:33.238Z,5.30
2022-10-08T15:25:01.925Z,4.00
2022-10-08T15:27:30.795Z,4.38
2022-10-08T15:29:59.179Z,6.18
2022-10-08T15:32:30.515Z,8.50
2022-10-08T15:34:59.276Z,14.35
2022-10-08T15:37:28.130Z,11.80
2022-10-08T15:39:56.949Z,7.20
2022-10-08T15:42:25.467Z,7.43
2022-10-08T15:44:55.338Z,8.75
2022-10-08T15:47:24.386Z,5.60
2022-10-08T15:49:55.857Z,7.65
2022-10-08T15:52:24.624Z,8.00
2022-10-08T15:54:53.181Z,4.72
2022-10-08T15:57:21.673Z,5.55
2022-10-08T15:59:50.492Z,4.35
2022-10-08T16:02:18.985Z,4.43
2022-10-08T16:04:48.625Z,4.20
2022-10-08T16:07:17.472Z,4.28
2022-10-08T16:09:46.149Z,4.10
2022-10-08T16:12:14.597Z,4.47
2022-10-08T16:14:43.428Z,4.18
2022-10-08T16:17:11.900Z,5.78
2022-10-08T16:19:40.412Z,5.25
2022-10-08T16:22:09.690Z,5.78
2022-10-08T16:24:38.046Z,5.20
2022-10-08T16:27:06.646Z,7.65
2022-10-08T16:29:35.327Z,9.20
2022-10-08T16:32:03.832Z,16.75
2022-10-08T16:34:32.384Z,14.18
2022-10-08T16:37:02.365Z,16.20
2022-10-08T16:39:33.241Z,19.95
2022-10-08T16:42:02.547Z,14.50
2022-10-08T16:44:32.053Z,9.35
2022-10-08T16:47:02.691Z,9.15
2022-10-08T16:49:31.661Z,6.80
2022-10-08T16:52:05.895Z,8.25
2022-10-08T16:54:35.077Z,8.15
2022-10-08T16:57:03.839Z,8.18
2022-10-08T16:59:32.290Z,8.77
2022-10-08T17:02:01.410Z,7.60
2022-10-08T17:04:35.220Z,6.20
2022-10-08T17:07:09.506Z,5.35
2022-10-08T17:09:38.350Z,5.18
2022-10-08T17:12:09.278Z,5.50
2022-10-08T17:14:38.065Z,4.50
2022-10-08T17:17:06.642Z,4.53
2022-10-08T17:19:35.926Z,3.70
2022-10-08T17:22:04.575Z,3.63
2022-10-08T17:24:32.907Z,3.67
2022-10-08T17:27:02.469Z,3.83
2022-10-08T17:29:34.481Z,5.40
2022-10-08T17:32:06.360Z,7.38
2022-10-08T17:34:34.989Z,9.45
2022-10-08T17:37:04.139Z,7.25
2022-10-08T17:39:32.815Z,11.00
2022-10-08T17:42:06.171Z,15.45
2022-10-08T17:44:36.444Z,25.40
2022-10-08T17:47:04.924Z,12.88
2022-10-08T17:49:33.609Z,18.63
2022-10-08T17:52:02.682Z,17.58
2022-10-08T17:54:31.546Z,14.02
2022-10-08T17:57:00.739Z,17.73
2022-10-08T17:59:29.570Z,6.20
2022-10-08T18:01:58.338Z,4.65
2022-10-08T18:04:27.010Z,5.10
2022-10-08T18:06:59.790Z,10.60
2022-10-08T18:09:31.191Z,4.40
2022-10-08T18:12:00.025Z,9.05
2022-10-08T18:14:31.196Z,4.97
2022-10-08T18:16:59.829Z,5.55
2022-10-08T18:19:29.434Z,8.07
2022-10-08T18:21:57.904Z,6.32
2022-10-08T18:24:27.420Z,7.97
2022-10-08T18:26:59.206Z,6.20
2022-10-08T18:29:27.729Z,6.45
2022-10-08T18:31:56.461Z,6.20
2022-10-08T18:34:26.003Z,9.05
2022-10-08T18:36:54.577Z,8.27
2022-10-08T18:39:28.249Z,10.82
2022-10-08T18:41:57.629Z,10.80
2022-10-08T18:44:27.319Z,9.90
2022-10-08T18:46:55.766Z,6.95
2022-10-08T18:49:30.215Z,7.88
2022-10-08T18:52:00.046Z,6.28
2022-10-08T18:54:28.698Z,6.72
2022-10-08T18:56:59.293Z,8.55
2022-10-08T18:59:28.487Z,6.63
2022-10-08T19:01:59.552Z,7.38
2022-10-08T19:04:28.655Z,7.97
2022-10-08T19:06:57.229Z,7.65
2022-10-08T19:09:26.211Z,9.68
2022-10-08T19:11:55.261Z,10.73
2022-10-08T19:14:24.500Z,12.43
2022-10-08T19:16:53.199Z,20.10
2022-10-08T19:19:28.262Z,20.50
2022-10-08T19:21:56.975Z,23.15
2022-10-08T19:24:26.542Z,18.10
2022-10-08T19:26:56.479Z,26.58
2022-10-08T19:29:29.711Z,42.10
2022-10-08T19:31:58.517Z,15.82
2022-10-08T19:34:27.884Z,14.60
2022-10-08T19:36:56.972Z,14.82
2022-10-08T19:39:30.576Z,10.95
2022-10-08T19:41:59.353Z,11.05
2022-10-08T19:44:28.082Z,9.77
2022-10-08T19:46:56.686Z,9.82
2022-10-08T19:49:26.384Z,10.48
2022-10-08T19:51:57.569Z,10.53
2022-10-08T19:54:26.103Z,10.77
2022-10-08T19:56:57.037Z,9.68
2022-10-08T19:59:27.900Z,10.00
2022-10-08T20:01:56.524Z,8.55
2022-10-08T20:04:25.138Z,8.60
2022-10-08T20:06:56.031Z,9.38
2022-10-08T20:09:24.781Z,9.40
2022-10-08T20:11:56.845Z,9.15
2022-10-08T20:14:27.811Z,9.63
2022-10-08T20:16:56.410Z,8.63
2022-10-08T20:19:25.118Z,9.90
2022-10-08T20:21:55.931Z,8.95
2022-10-08T20:24:24.871Z,9.35
2022-10-08T20:26:53.747Z,9.45
2022-10-08T20:29:26.206Z,10.10
2022-10-08T20:31:57.757Z,10.23
2022-10-08T20:34:28.948Z,10.20
2022-10-08T20:37:02.874Z,9.75
2022-10-08T20:39:31.649Z,9.73
2022-10-08T20:42:00.266Z,9.27
2022-10-08T20:44:28.712Z,9.65
2022-10-08T20:46:57.405Z,10.50
2022-10-08T20:49:27.351Z,11.23
2022-10-08T20:51:55.752Z,10.48
2022-10-08T20:54:25.380Z,11.10
2022-10-08T20:56:53.795Z,10.85
2022-10-08T20:59:23.394Z,11.45
2022-10-08T21:01:53.681Z,10.20
2022-10-08T21:04:22.514Z,10.27
2022-10-08T21:06:52.308Z,9.65
2022-10-08T21:09:22.329Z,9.52
2022-10-08T21:11:50.811Z,10.18
2022-10-08T21:14:22.703Z,10.02
2022-10-08T21:19:39.341Z,8.93
2022-10-08T21:22:33.698Z,7.22
2022-10-08T21:25:02.404Z,7.05
2022-10-08T21:27:31.345Z,6.47
2022-10-08T21:29:59.853Z,6.18
2022-10-08T21:32:28.287Z,5.63
2022-10-08T21:34:56.860Z,5.05
2022-10-08T21:37:26.204Z,6.30
2022-10-08T21:39:54.694Z,6.03
2022-10-08T21:45:31.488Z,5.03
2022-10-08T21:48:00.275Z,5.80
2022-10-08T21:50:30.295Z,4.90
2022-10-08T21:53:00.595Z,5.22
2022-10-08T21:55:29.111Z,4.88
2022-10-08T21:57:57.729Z,4.18
2022-10-08T22:00:32.361Z,4.10
2022-10-08T22:03:01.000Z,3.83
2022-10-08T22:05:30.048Z,3.60
2022-10-08T22:07:58.419Z,3.80
2022-10-08T22:10:26.751Z,3.83
2022-10-08T22:12:56.846Z,3.72
2022-10-08T22:15:25.167Z,2.80
2022-10-08T22:17:54.864Z,2.83
2022-10-08T22:20:23.507Z,2.60
2022-10-08T22:22:52.044Z,2.80
2022-10-08T22:25:20.351Z,3.22
2022-10-08T22:27:48.830Z,2.83
2022-10-08T22:30:17.476Z,2.58
2022-10-08T22:32:46.082Z,2.50
2022-10-08T22:35:15.016Z,2.58
2022-10-08T22:37:43.752Z,2.45
2022-10-08T22:40:12.309Z,3.10
2022-10-08T22:42:53.320Z,2.45
2022-10-08T22:45:24.110Z,2.83
2022-10-08T22:47:53.524Z,2.83
2022-10-08T22:50:21.945Z,2.63
2022-10-08T22:52:50.786Z,2.60
2022-10-08T22:55:21.006Z,2.90
2022-10-08T22:57:49.283Z,2.90
2022-10-08T23:00:17.589Z,2.40
2022-10-08T23:02:46.275Z,2.40
2022-10-08T23:05:14.790Z,2.58
2022-10-08T23:07:43.121Z,2.40
2022-10-08T23:10:12.077Z,2.17
2022-10-08T23:12:40.379Z,2.28
2022-10-08T23:15:09.005Z,2.60
2022-10-08T23:17:37.847Z,4.05
2022-10-08T23:20:06.627Z,3.75
2022-10-08T23:22:35.180Z,3.05
2022-10-08T23:25:04.069Z,3.00
2022-10-08T23:27:32.523Z,3.65
2022-10-08T23:30:01.836Z,4.63
2022-10-08T23:32:30.672Z,3.80
2022-10-08T23:34:59.410Z,3.70
2022-10-08T23:37:27.853Z,4.20
2022-10-08T23:39:58.005Z,3.70
2022-10-08T23:42:26.387Z,4.35
2022-10-08T23:44:54.822Z,3.92
2022-10-08T23:47:23.372Z,3.47
2022-10-08T23:49:51.822Z,3.53
2022-10-08T23:52:20.468Z,3.17
2022-10-08T23:54:49.250Z,3.35
2022-10-08T23:57:20.606Z,3.80
2022-10-08T23:59:49.391Z,3.25
